Date,TemperatureHighF,TemperatureAvgF,TemperatureLowF,DewpointHighF,DewpointAvgF,DewpointLowF,HumidityHigh,HumidityAvg,HumidityLow,PressureMaxIn,PressureMinIn,WindSpeedMaxMPH,WindSpeedAvgMPH,GustSpeedMaxMPH,PrecipitationSumIn
2013-1-1,23,8,-5,-2,-10,-15,65,46,28,21.91,21.76,13,4,13,0.00
2013-1-2,26,18,13,8,4,-2,65,54,32,22.00,21.90,15,5,15,0.00
2013-1-3,33,19,9,14,8,-3,70,63,56,29.94,21.81,16,6,17,0.00
2013-1-4,38,21,8,14,7,-3,70,56,38,21.98,21.84,17,6,17,0.00
2013-1-5,36,23,6,26,14,-2,77,67,44,22.15,21.83,19,4,19,0.00
2013-1-6,37,24,10,22,14,2,73,63,45,22.14,21.76,19,6,19,0.27
2013-1-7,41,26,9,23,13,1,73,60,41,22.04,21.78,26,6,26,0.00
2013-1-8,39,29,11,29,19,4,76,67,52,22.14,21.93,20,5,20,0.00
2013-1-9,44,34,20,30,21,13,74,59,37,22.14,21.58,25,9,25,0.00
2013-1-10,38,31,16,32,22,9,91,72,50,22.15,21.55,55,4,55,0.69
2013-1-11,43,38,34,42,36,32,99,95,91,22.45,22.14,14,3,14,0.31
2013-1-12,48,33,20,45,23,7,99,68,50,22.45,22.00,31,10,31,0.00
2013-1-14,26,15,8,4,1,-2,65,54,36,21.66,21.63,12,2,12,0.00
2013-1-15,81,23,3,38,5,-6,69,47,22,30.16,21.63,19,6,19,0.00
2013-1-16,32,28,23,28,17,3,86,63,41,22.24,21.90,28,8,28,0.99
2013-1-17,29,18,10,3,-1,-9,57,44,22,21.90,21.63,13,5,13,0.99
2013-1-18,59,39,16,49,26,8,98,60,48,29.94,21.85,25,8,25,0.01
2013-1-19,50,34,9,32,21,-14,82,60,30,22.39,22.02,41,11,41,0.01
2013-1-20,57,10,4,46,-14,-20,66,34,22,29.78,21.71,30,8,34,0.01
2013-1-21,7,-1,-8,-9,-23,-31,53,34,21,21.89,21.73,25,9,25,0.00
2013-1-22,10,-2,-10,-16,-23,-28,47,35,21,21.75,21.68,16,5,16,0.00
2013-1-23,17,8,-1,6,-6,-19,63,51,38,21.95,21.56,23,7,23,0.00
2013-1-24,45,5,-4,-1,-14,-20,57,41,29,30.19,21.38,13,4,13,0.00
2013-1-25,57,17,11,10,6,-1,71,60,50,29.78,21.71,19,6,19,0.00
2013-1-26,44,17,3,7,0,-7,62,48,25,29.99,21.63,14,5,14,0.00
2013-1-27,31,27,23,29,18,7,92,70,50,22.17,21.72,17,6,17,0.00
2013-1-28,45,33,30,31,29,27,93,86,72,30.20,22.06,11,2,11,0.13
2013-1-29,46,38,32,45,36,29,99,95,88,30.10,22.24,14,5,14,0.43
2013-1-30,42,25,13,32,21,3,94,84,64,30.04,22.39,14,2,14,0.04
2013-1-31,17,8,-1,4,-6,-16,66,53,39,22.39,21.88,0,0,0,0.00